EGNV/MME METAR and TAF weather

Enter ICAO airport designator
Station Type Date Time Source
EGNV METAR 2020/07/09 20:50 UTC NOAA

EGNV 092050Z VRB01KT 9999 FEW020 SCT026 11/09 Q1014


Station Type Date Time Source
EGNV Decoded METAR 2020/07/09 20:50 UTC NOAA

Tees-Side, United Kingdom (EGNV) 54-31N 001-25W
Jul 09, 2020 - 04:50 PM EDT / 2020.07.09 2050 UTC
Wind: Variable at 1 MPH (1 KT):0
Visibility: greater than 7 mile(s):0
Sky conditions: partly cloudy
Temperature: 51 F (11 C)
Dew Point: 48 F (9 C)
Relative Humidity: 87%
Pressure (altimeter): 29.94 in. Hg (1014 hPa)
ob: EGNV 092050Z VRB01KT 9999 FEW020 SCT026 11/09 Q1014
cycle: 21

Station Type Date Time Source
EGNV TAF 2020/03/12 18:15 UTC NOAA

TAF EGNV 120708Z 1118/1222 CNL

Example: see airport list